createdAt,value
2023-01-09T00:06:16.969Z,3.79
2023-01-09T00:21:59.344Z,3.63
2023-01-09T00:37:42.599Z,3.49
2023-01-09T00:53:25.209Z,3.33
2023-01-09T01:09:08.120Z,3.28
2023-01-09T01:24:51.001Z,3.26
2023-01-09T01:40:34.269Z,3.16
2023-01-09T01:56:16.929Z,3.06
2023-01-09T02:11:59.514Z,2.93
2023-01-09T02:27:42.440Z,2.92
2023-01-09T02:43:24.901Z,2.91
2023-01-09T02:59:07.973Z,2.91
2023-01-09T03:14:51.248Z,2.88
2023-01-09T03:30:34.091Z,3.01
2023-01-09T03:46:17.310Z,3.25
2023-01-09T04:01:59.726Z,3.45
2023-01-09T04:17:42.777Z,3.67
2023-01-09T04:33:25.507Z,3.84
2023-01-09T04:49:08.202Z,3.98
2023-01-09T05:04:50.979Z,4.17
2023-01-09T05:20:33.396Z,4.32
2023-01-09T05:36:15.817Z,4.35
2023-01-09T05:51:58.207Z,4.39
2023-01-09T06:07:40.953Z,4.42
2023-01-09T06:23:23.730Z,4.39
2023-01-09T06:39:06.326Z,4.44
2023-01-09T06:54:48.701Z,4.44
2023-01-09T07:10:31.565Z,4.48
2023-01-09T07:26:14.272Z,4.56
2023-01-09T07:41:57.002Z,4.67
2023-01-09T07:57:40.142Z,4.77
2023-01-09T08:13:22.505Z,4.9
2023-01-09T08:29:05.045Z,5
2023-01-09T08:44:48.170Z,5.25
2023-01-09T09:00:31.001Z,5.37
2023-01-09T09:16:14.258Z,5.43
2023-01-09T09:31:57.388Z,5.49
2023-01-09T09:47:40.564Z,5.67
2023-01-09T10:03:22.942Z,6.02
2023-01-09T10:19:05.601Z,6.44
2023-01-09T10:34:48.528Z,6.7
2023-01-09T10:35:35.883Z,6.89
2023-01-09T10:51:18.204Z,6.87
2023-01-09T11:07:01.057Z,7.13
2023-01-09T11:22:43.452Z,7.43
2023-01-09T11:38:26.673Z,7.44
2023-01-09T11:54:09.279Z,7.49
2023-01-09T12:09:52.073Z,7.41
2023-01-09T12:25:35.014Z,7.36
2023-01-09T12:41:17.832Z,7.59
2023-01-09T12:57:00.846Z,7.82
2023-01-09T13:12:43.369Z,7.76
2023-01-09T13:28:25.837Z,7.82
2023-01-09T13:44:08.863Z,7.86
2023-01-09T13:59:51.020Z,7.81
2023-01-09T14:15:33.712Z,7.7
2023-01-09T14:31:16.364Z,7.58
2023-01-09T14:46:58.670Z,7.51
2023-01-09T15:02:40.947Z,7.51
2023-01-09T15:18:23.602Z,7.35
2023-01-09T15:34:06.853Z,7.15
2023-01-09T15:49:50.040Z,6.91
2023-01-09T16:05:32.893Z,6.83
2023-01-09T16:21:15.969Z,6.81
2023-01-09T16:36:58.519Z,6.87
2023-01-09T16:52:41.244Z,6.59
2023-01-09T17:08:24.210Z,6.38
2023-01-09T17:24:06.757Z,6.31
2023-01-09T17:39:49.627Z,6.1
2023-01-09T17:55:32.882Z,5.9
2023-01-09T18:11:15.520Z,5.62
2023-01-09T18:26:57.935Z,5.47
2023-01-09T18:42:40.412Z,5.48
2023-01-09T18:58:23.486Z,5.45
2023-01-09T19:14:06.714Z,5.32
2023-01-09T19:29:48.999Z,5.29
2023-01-09T19:45:31.797Z,5.34
2023-01-09T20:01:14.346Z,5.49
2023-01-09T20:16:56.693Z,5.42
2023-01-09T20:32:39.775Z,5.31
2023-01-09T20:48:22.119Z,5.43
2023-01-09T21:04:04.880Z,5.67
2023-01-09T21:19:48.090Z,5.84
2023-01-09T21:35:31.129Z,5.79
2023-01-09T21:51:13.398Z,5.75
2023-01-09T22:06:55.717Z,5.81
2023-01-09T22:22:38.794Z,5.87
2023-01-09T22:38:21.321Z,5.92
2023-01-09T22:54:03.977Z,5.9
2023-01-09T23:09:46.812Z,5.86
2023-01-09T23:25:29.323Z,5.79
2023-01-09T23:41:11.890Z,5.77
2023-01-09T23:56:54.167Z,5.76
